Terminal Aerodrome Forecast
Issued by NWS

Current Version | Previous Version | Text Only | Print | Product List | Glossary On
Versions: 1 2 3 4 5 6 7 8 9 10 11 12
000
FTUS43 KGLD 191120
TAFMCK
TAF
KMCK 191120Z 1912/2012 17008KT P6SM SCT200 WS020/21035KT
     FM191500 18009KT P6SM BKN170
     FM191700 18013KT P6SM BKN170
     FM192100 17018G28KT P6SM BKN180
     FM200500 16012KT P6SM SCT003 BKN180
     FM200800 19010KT P6SM SCT002 BKN200
     FM201000 22009KT P6SM SCT035
     FM201100 25009KT P6SM SCT040=

USA.gov is the U.S. government's official web portal to all federal, state and local government web resources and services.